createdAt,value
2018-08-22T00:02:33.425Z,2.87
2018-08-22T00:05:08.056Z,2.30
2018-08-22T00:07:42.742Z,3.00
2018-08-22T00:10:17.266Z,2.50
2018-08-22T00:12:51.748Z,3.60
2018-08-22T00:15:26.248Z,2.40
2018-08-22T00:18:00.852Z,4.10
2018-08-22T00:20:35.492Z,2.57
2018-08-22T00:23:10.120Z,2.47
2018-08-22T00:25:44.803Z,3.10
2018-08-22T00:28:19.517Z,3.23
2018-08-22T00:30:54.184Z,3.63
2018-08-22T00:33:28.778Z,2.77
2018-08-22T00:36:03.314Z,2.00
2018-08-22T00:38:37.940Z,2.63
2018-08-22T00:41:12.534Z,2.23
2018-08-22T00:43:47.244Z,2.30
2018-08-22T00:46:22.937Z,3.83
2018-08-22T00:49:09.917Z,3.03
2018-08-22T00:51:51.867Z,3.67
2018-08-22T00:54:26.343Z,2.23
2018-08-22T00:57:00.902Z,2.30
2018-08-22T00:59:35.784Z,2.67
2018-08-22T01:02:10.360Z,2.80
2018-08-22T01:04:45.092Z,4.67
2018-08-22T01:07:19.729Z,1.90
2018-08-22T01:09:54.188Z,2.47
2018-08-22T01:12:28.815Z,2.53
2018-08-22T01:15:03.621Z,5.37
2018-08-22T01:17:38.058Z,3.40
2018-08-22T01:20:18.785Z,2.73
2018-08-22T01:22:53.423Z,4.70
2018-08-22T01:25:28.090Z,2.87
2018-08-22T01:28:02.760Z,3.80
2018-08-22T01:30:37.260Z,2.33
2018-08-22T01:33:11.845Z,5.17
2018-08-22T01:35:46.884Z,2.10
2018-08-22T01:38:21.489Z,2.70
2018-08-22T01:40:56.049Z,3.33
2018-08-22T01:43:30.571Z,2.70
2018-08-22T01:46:05.384Z,3.10
2018-08-22T01:48:39.849Z,2.20
2018-08-22T01:51:14.329Z,2.47
2018-08-22T01:53:48.736Z,3.23
2018-08-22T01:56:23.344Z,3.53
2018-08-22T01:58:57.940Z,2.87
2018-08-22T02:01:32.527Z,2.93
2018-08-22T02:04:07.277Z,2.40
2018-08-22T02:06:41.892Z,3.00
2018-08-22T02:09:16.577Z,3.73
2018-08-22T02:11:51.089Z,2.33
2018-08-22T02:14:25.618Z,2.70
2018-08-22T02:17:00.448Z,4.23
2018-08-22T02:19:35.079Z,3.90
2018-08-22T02:22:09.724Z,2.77
2018-08-22T02:24:44.276Z,3.33
2018-08-22T02:27:18.882Z,4.07
2018-08-22T02:29:53.488Z,4.20
2018-08-22T02:32:28.155Z,4.37
2018-08-22T02:35:02.784Z,2.67
2018-08-22T02:37:37.411Z,3.93
2018-08-22T02:40:11.975Z,3.20
2018-08-22T02:42:46.477Z,2.50
2018-08-22T02:45:21.125Z,4.40
2018-08-22T02:47:55.672Z,5.57
2018-08-22T02:50:30.093Z,5.20
2018-08-22T02:53:04.648Z,3.20
2018-08-22T02:55:39.234Z,2.93
2018-08-22T02:58:13.772Z,4.07
2018-08-22T03:00:48.421Z,3.17
2018-08-22T03:03:23.049Z,3.33
2018-08-22T03:05:57.553Z,4.87
2018-08-22T03:08:32.137Z,3.90
2018-08-22T03:11:06.705Z,2.53
2018-08-22T03:13:41.344Z,3.73
2018-08-22T03:16:15.964Z,3.97
2018-08-22T03:18:50.676Z,3.40
2018-08-22T03:21:25.329Z,3.37
2018-08-22T03:23:59.841Z,5.07
2018-08-22T03:26:34.468Z,4.63
2018-08-22T03:29:09.017Z,6.97
2018-08-22T03:31:43.665Z,3.33
2018-08-22T03:37:16.925Z,3.03
2018-08-22T03:39:51.458Z,4.80
2018-08-22T03:42:26.101Z,3.53
2018-08-22T03:45:00.840Z,3.63
2018-08-22T03:47:35.479Z,7.37
2018-08-22T03:50:10.199Z,4.33
2018-08-22T03:52:44.824Z,6.33
2018-08-22T03:55:19.389Z,3.40
2018-08-22T03:57:53.965Z,4.60
2018-08-22T04:00:28.557Z,4.60
2018-08-22T04:03:03.070Z,4.67
2018-08-22T04:05:37.664Z,6.43
2018-08-22T04:08:12.370Z,5.87
2018-08-22T04:10:46.816Z,5.40
2018-08-22T04:13:32.828Z,5.93
2018-08-22T04:16:07.394Z,3.92
2018-08-22T04:18:41.882Z,4.20
2018-08-22T04:21:16.468Z,7.37
2018-08-22T04:23:51.061Z,4.57
2018-08-22T04:26:25.844Z,4.80
2018-08-22T04:29:00.274Z,4.03
2018-08-22T04:31:35.185Z,3.50
2018-08-22T04:34:09.849Z,3.80
2018-08-22T04:36:44.945Z,4.73
2018-08-22T04:39:19.440Z,5.93
2018-08-22T04:41:54.025Z,6.00
2018-08-22T04:44:28.695Z,3.97
2018-08-22T04:47:03.405Z,3.97
2018-08-22T04:49:38.057Z,5.97
2018-08-22T04:52:13.069Z,4.87
2018-08-22T04:54:47.797Z,5.03
2018-08-22T04:57:22.320Z,5.53
2018-08-22T04:59:56.888Z,7.30
2018-08-22T05:02:31.572Z,5.40
2018-08-22T05:05:06.185Z,4.97
2018-08-22T05:07:40.737Z,5.57
2018-08-22T05:10:15.401Z,3.97
2018-08-22T05:12:50.039Z,4.10
2018-08-22T05:15:24.532Z,4.83
2018-08-22T05:17:59.193Z,3.80
2018-08-22T05:20:33.918Z,6.33
2018-08-22T05:23:08.609Z,3.93
2018-08-22T05:25:43.169Z,3.70
2018-08-22T05:28:17.784Z,5.17
2018-08-22T05:30:52.264Z,4.57
2018-08-22T05:33:26.837Z,5.07
2018-08-22T05:36:02.419Z,5.13
2018-08-22T05:38:36.991Z,7.33
2018-08-22T05:41:11.537Z,4.40
2018-08-22T05:43:46.165Z,5.07
2018-08-22T05:46:21.187Z,5.27
2018-08-22T05:48:55.712Z,5.37
2018-08-22T05:51:30.330Z,5.10
2018-08-22T05:54:04.942Z,3.97
2018-08-22T05:56:39.400Z,5.40
2018-08-22T05:59:14.196Z,4.27
2018-08-22T06:01:48.766Z,5.33
2018-08-22T06:04:23.401Z,4.20
2018-08-22T06:06:57.992Z,4.07
2018-08-22T06:09:32.474Z,3.43
2018-08-22T06:12:07.319Z,4.10
2018-08-22T06:14:41.990Z,7.53
2018-08-22T06:17:16.613Z,4.03
2018-08-22T06:19:51.421Z,4.20
2018-08-22T06:22:25.934Z,3.30
2018-08-22T06:25:00.578Z,3.83
2018-08-22T06:27:35.656Z,4.87
2018-08-22T06:30:11.177Z,8.53
2018-08-22T06:32:45.674Z,3.43
2018-08-22T06:35:20.289Z,5.77
2018-08-22T06:37:54.824Z,3.97
2018-08-22T06:40:29.397Z,5.43
2018-08-22T06:43:04.152Z,6.37
2018-08-22T06:45:38.609Z,4.70
2018-08-22T06:48:13.176Z,4.10
2018-08-22T06:50:47.813Z,4.20
2018-08-22T06:53:22.521Z,5.43
2018-08-22T06:55:57.033Z,3.87
2018-08-22T06:58:31.481Z,3.70
2018-08-22T07:01:06.064Z,3.93
2018-08-22T07:03:40.602Z,4.33
2018-08-22T07:06:15.173Z,5.43
2018-08-22T07:08:49.613Z,3.73
2018-08-22T07:11:24.270Z,4.17
2018-08-22T07:13:58.929Z,4.73
2018-08-22T07:16:33.500Z,4.53
2018-08-22T07:19:08.126Z,6.10
2018-08-22T07:21:42.679Z,5.67
2018-08-22T07:24:17.272Z,3.80
2018-08-22T07:26:51.991Z,6.23
2018-08-22T07:29:26.705Z,3.37
2018-08-22T07:32:01.264Z,5.23
2018-08-22T07:34:41.453Z,4.60
2018-08-22T07:37:16.325Z,3.47
2018-08-22T07:39:50.917Z,4.73
2018-08-22T07:42:25.529Z,3.13
2018-08-22T07:45:00.178Z,3.77
2018-08-22T07:47:34.737Z,3.60
2018-08-22T07:50:09.330Z,7.27
2018-08-22T07:52:50.640Z,3.90
2018-08-22T07:55:25.312Z,5.07
2018-08-22T07:58:00.037Z,3.50
2018-08-22T08:06:56.550Z,4.87
2018-08-22T08:09:31.096Z,3.93
2018-08-22T08:12:05.796Z,3.53
2018-08-22T08:14:40.449Z,4.30
2018-08-22T08:17:15.233Z,6.37
2018-08-22T08:19:49.741Z,5.20
2018-08-22T08:22:24.362Z,4.97
2018-08-22T08:24:58.932Z,5.43
2018-08-22T08:27:33.553Z,3.50
2018-08-22T08:30:08.108Z,4.07
2018-08-22T08:32:42.753Z,4.43
2018-08-22T08:35:17.474Z,4.00
2018-08-22T08:37:52.328Z,6.70
2018-08-22T08:40:26.725Z,3.70
2018-08-22T08:43:02.320Z,5.47
2018-08-22T08:45:38.954Z,5.33
2018-08-22T08:48:13.533Z,5.67
2018-08-22T08:50:48.306Z,5.43
2018-08-22T08:53:27.146Z,6.27
2018-08-22T08:56:03.447Z,6.42
2018-08-22T08:58:38.194Z,4.00
2018-08-22T09:01:12.704Z,5.90
2018-08-22T09:03:47.458Z,5.27
2018-08-22T09:06:22.032Z,5.77
2018-08-22T09:08:56.692Z,6.13
2018-08-22T09:11:31.380Z,4.50
2018-08-22T09:14:07.184Z,5.20
2018-08-22T09:16:41.752Z,5.80
2018-08-22T09:19:16.281Z,4.63
2018-08-22T09:21:50.840Z,4.23
2018-08-22T09:24:25.381Z,5.93
2018-08-22T09:26:59.845Z,4.30
2018-08-22T09:29:34.457Z,4.70
2018-08-22T09:32:09.168Z,5.30
2018-08-22T09:34:43.852Z,4.43
2018-08-22T09:37:18.705Z,3.83
2018-08-22T09:39:53.168Z,4.40
2018-08-22T09:42:27.648Z,5.13
2018-08-22T09:45:02.360Z,4.37
2018-08-22T09:47:37.116Z,3.77
2018-08-22T09:50:11.678Z,4.17
2018-08-22T09:52:46.301Z,6.73
2018-08-22T09:55:20.888Z,4.10
2018-08-22T09:57:55.487Z,4.33
2018-08-22T10:00:35.459Z,6.70
2018-08-22T10:03:09.918Z,4.43
2018-08-22T10:05:44.659Z,5.43
2018-08-22T10:08:19.161Z,11.87
2018-08-22T10:10:53.837Z,4.90
2018-08-22T10:13:28.392Z,5.97
2018-08-22T10:16:03.669Z,4.50
2018-08-22T10:18:38.325Z,7.30
2018-08-22T10:21:12.958Z,5.70
2018-08-22T10:23:47.633Z,4.40
2018-08-22T10:26:22.493Z,6.27
2018-08-22T10:28:57.130Z,4.37
2018-08-22T10:31:31.845Z,4.53
2018-08-22T10:34:10.377Z,4.40
2018-08-22T10:36:45.880Z,5.57
2018-08-22T10:39:20.451Z,5.90
2018-08-22T10:41:54.980Z,7.10
2018-08-22T10:44:29.735Z,5.20
2018-08-22T10:47:04.254Z,4.50
2018-08-22T10:49:38.748Z,4.67
2018-08-22T10:52:13.378Z,4.37
2018-08-22T10:54:47.869Z,6.13
2018-08-22T10:57:22.380Z,4.97
2018-08-22T11:00:04.877Z,4.80
2018-08-22T11:02:44.164Z,5.70
2018-08-22T11:05:31.057Z,5.87
2018-08-22T11:08:06.798Z,6.67
2018-08-22T11:10:41.677Z,11.20
2018-08-22T11:13:16.260Z,5.00
2018-08-22T11:15:51.036Z,9.67
2018-08-22T11:18:25.613Z,9.37
2018-08-22T11:21:11.786Z,7.50
2018-08-22T11:23:57.693Z,6.97
2018-08-22T11:26:43.504Z,8.63
2018-08-22T11:29:29.472Z,7.80
2018-08-22T11:32:15.316Z,7.23
2018-08-22T11:34:50.921Z,7.27
2018-08-22T11:37:25.621Z,6.73
2018-08-22T11:40:00.249Z,6.77
2018-08-22T11:42:34.769Z,8.27
2018-08-22T11:45:09.353Z,5.97
2018-08-22T11:47:44.065Z,5.63
2018-08-22T11:50:18.757Z,5.47
2018-08-22T11:52:53.450Z,5.67
2018-08-22T11:55:28.118Z,7.30
2018-08-22T11:58:03.025Z,6.93
2018-08-22T12:00:37.729Z,7.83
2018-08-22T12:03:12.252Z,9.37
2018-08-22T12:05:46.809Z,7.83
2018-08-22T12:08:21.332Z,6.73
2018-08-22T12:10:55.695Z,8.53
2018-08-22T12:13:30.122Z,8.90
2018-08-22T12:16:04.991Z,8.73
2018-08-22T12:18:39.793Z,7.10
2018-08-22T12:21:14.348Z,7.83
2018-08-22T12:23:48.892Z,8.50
2018-08-22T12:26:23.541Z,8.10
2018-08-22T12:28:58.071Z,7.87
2018-08-22T12:31:32.745Z,9.83
2018-08-22T12:34:07.905Z,9.77
2018-08-22T12:39:45.112Z,8.60
2018-08-22T12:42:19.699Z,9.23
2018-08-22T12:44:54.734Z,13.60
2018-08-22T12:47:29.253Z,11.93
2018-08-22T12:50:03.910Z,8.73
2018-08-22T12:52:38.408Z,10.07
2018-08-22T12:55:13.234Z,10.03
2018-08-22T12:57:47.705Z,9.33
2018-08-22T13:00:22.353Z,10.77
2018-08-22T13:02:56.848Z,8.73
2018-08-22T13:05:31.394Z,9.27
2018-08-22T13:08:06.268Z,9.00
2018-08-22T13:10:40.844Z,11.70
2018-08-22T13:13:15.576Z,11.10
2018-08-22T13:15:50.113Z,10.90
2018-08-22T13:18:24.723Z,21.43
2018-08-22T13:20:59.229Z,14.33
2018-08-22T13:23:34.049Z,11.23
2018-08-22T13:26:08.475Z,10.10
2018-08-22T13:28:43.040Z,12.97
2018-08-22T13:31:17.582Z,10.73
2018-08-22T13:33:52.058Z,12.73
2018-08-22T13:36:26.464Z,15.53
2018-08-22T13:39:01.202Z,11.77
2018-08-22T13:41:48.220Z,14.60
2018-08-22T13:44:23.384Z,14.43
2018-08-22T13:46:57.992Z,10.53
2018-08-22T13:49:32.597Z,9.97
2018-08-22T13:52:07.245Z,10.50
2018-08-22T13:54:41.798Z,10.00
2018-08-22T13:57:16.334Z,8.37
2018-08-22T13:59:50.833Z,16.80
2018-08-22T14:02:25.765Z,8.70
2018-08-22T14:05:00.404Z,9.63
2018-08-22T14:07:35.041Z,13.83
2018-08-22T14:10:09.680Z,12.43
2018-08-22T14:12:44.184Z,13.13
2018-08-22T14:15:18.749Z,11.53
2018-08-22T14:17:53.364Z,11.03
2018-08-22T14:20:27.809Z,8.30
2018-08-22T14:23:02.487Z,7.57
2018-08-22T14:25:37.152Z,11.80
2018-08-22T14:28:12.744Z,9.17
2018-08-22T14:30:47.470Z,11.70
2018-08-22T14:33:22.133Z,10.53
2018-08-22T14:35:56.725Z,11.03
2018-08-22T14:38:31.199Z,11.63
2018-08-22T14:41:05.709Z,9.83
2018-08-22T14:43:40.718Z,9.63
2018-08-22T14:46:15.161Z,10.40
2018-08-22T14:48:49.685Z,9.90
2018-08-22T14:51:24.353Z,12.10
2018-08-22T14:53:58.923Z,13.93
2018-08-22T14:56:33.616Z,12.37
2018-08-22T14:59:08.173Z,12.77
2018-08-22T15:01:42.714Z,7.27
2018-08-22T15:04:17.413Z,14.37
2018-08-22T15:06:51.983Z,11.97
2018-08-22T15:09:26.865Z,10.37
2018-08-22T15:12:01.357Z,10.93
2018-08-22T15:14:36.009Z,5.90
2018-08-22T15:17:10.871Z,9.47
2018-08-22T15:19:45.580Z,10.30
2018-08-22T15:22:20.321Z,10.23
2018-08-22T15:24:54.921Z,8.68
2018-08-22T15:27:29.472Z,11.40
2018-08-22T15:30:04.300Z,10.47
2018-08-22T15:32:38.938Z,11.33
2018-08-22T15:35:13.555Z,12.27
2018-08-22T15:37:48.152Z,9.60
2018-08-22T15:40:22.745Z,7.37
2018-08-22T15:42:57.248Z,10.20
2018-08-22T15:45:31.713Z,8.43
2018-08-22T15:48:06.241Z,8.80
2018-08-22T15:50:40.769Z,7.90
2018-08-22T15:53:15.481Z,9.63
2018-08-22T15:55:50.017Z,7.67
2018-08-22T15:58:24.617Z,6.63
2018-08-22T16:00:59.026Z,7.27
2018-08-22T16:03:33.733Z,11.73
2018-08-22T16:06:08.369Z,10.33
2018-08-22T16:08:42.989Z,9.77
2018-08-22T16:11:17.554Z,10.67
2018-08-22T16:13:52.301Z,8.00
2018-08-22T16:16:26.911Z,10.33
2018-08-22T16:19:04.044Z,14.40
2018-08-22T16:21:38.590Z,18.53
2018-08-22T16:24:13.349Z,14.47
2018-08-22T16:26:48.005Z,17.30
2018-08-22T16:29:22.645Z,14.13
2018-08-22T16:31:57.182Z,14.77
2018-08-22T16:34:31.757Z,14.63
2018-08-22T16:37:06.548Z,18.27
2018-08-22T16:39:43.004Z,16.50
2018-08-22T16:42:21.427Z,18.47
2018-08-22T16:44:56.049Z,20.10
2018-08-22T16:47:34.721Z,15.87
2018-08-22T16:50:09.241Z,21.00
2018-08-22T16:52:43.737Z,17.97
2018-08-22T16:55:22.452Z,22.20
2018-08-22T16:57:57.152Z,19.23
2018-08-22T17:00:37.936Z,21.77
2018-08-22T17:03:12.680Z,19.17
2018-08-22T17:05:47.342Z,16.77
2018-08-22T17:08:22.030Z,17.80
2018-08-22T17:11:00.256Z,15.43
2018-08-22T17:13:45.604Z,18.83
2018-08-22T17:16:20.517Z,15.57
2018-08-22T17:18:58.417Z,16.90
2018-08-22T17:21:33.638Z,15.97
2018-08-22T17:24:08.434Z,13.87
2018-08-22T17:26:43.979Z,13.50
2018-08-22T17:29:18.644Z,14.47
2018-08-22T17:31:58.516Z,12.67
2018-08-22T17:34:33.387Z,16.17
2018-08-22T17:37:09.502Z,18.53
2018-08-22T17:39:44.846Z,15.07
2018-08-22T17:42:19.344Z,11.70
2018-08-22T17:44:53.813Z,14.93
2018-08-22T17:47:28.402Z,14.83
2018-08-22T17:50:07.324Z,14.73
2018-08-22T17:52:41.701Z,13.07
2018-08-22T17:55:17.069Z,13.90
2018-08-22T17:57:51.601Z,12.07
2018-08-22T18:00:28.569Z,14.00
2018-08-22T18:03:03.203Z,15.07
2018-08-22T18:05:37.778Z,12.53
2018-08-22T18:08:12.946Z,16.13
2018-08-22T18:10:47.685Z,11.23
2018-08-22T18:13:22.376Z,10.33
2018-08-22T18:15:56.890Z,13.20
2018-08-22T18:18:31.405Z,11.10
2018-08-22T18:21:05.840Z,10.67
2018-08-22T18:23:45.413Z,14.43
2018-08-22T18:26:20.051Z,14.17
2018-08-22T18:28:54.740Z,16.40
2018-08-22T18:31:29.265Z,12.27
2018-08-22T18:34:03.913Z,14.30
2018-08-22T18:36:38.417Z,13.13
2018-08-22T18:39:15.221Z,12.77
2018-08-22T18:41:49.717Z,12.97
2018-08-22T18:44:24.155Z,13.53
2018-08-22T18:46:58.688Z,13.93
2018-08-22T18:49:33.261Z,16.67
2018-08-22T18:52:07.769Z,13.10
2018-08-22T18:54:42.357Z,13.93
2018-08-22T18:57:17.097Z,13.87
2018-08-22T18:59:51.940Z,13.97
2018-08-22T19:02:27.593Z,11.00
2018-08-22T19:05:34.783Z,12.47
2018-08-22T19:08:11.028Z,11.47
2018-08-22T19:10:47.955Z,15.13
2018-08-22T19:13:23.898Z,14.60
2018-08-22T19:16:00.748Z,14.80
2018-08-22T19:18:35.569Z,13.43
2018-08-22T19:21:11.132Z,12.13
2018-08-22T19:23:46.849Z,17.97
2018-08-22T19:26:21.598Z,12.13
2018-08-22T19:28:58.002Z,15.23
2018-08-22T19:31:32.419Z,13.97
2018-08-22T19:34:06.961Z,15.43
2018-08-22T19:36:42.045Z,14.60
2018-08-22T19:39:17.453Z,17.20
2018-08-22T19:41:52.065Z,16.53
2018-08-22T19:44:26.677Z,17.10
2018-08-22T19:47:01.251Z,18.93
2018-08-22T19:49:35.864Z,17.33
2018-08-22T19:52:10.401Z,19.87
2018-08-22T19:54:44.973Z,21.43
2018-08-22T19:57:23.857Z,18.87
2018-08-22T19:59:58.339Z,19.53
2018-08-22T20:02:33.225Z,18.27
2018-08-22T20:05:09.257Z,18.70
2018-08-22T20:07:43.765Z,19.73
2018-08-22T20:10:22.508Z,20.80
2018-08-22T20:12:57.528Z,21.80
2018-08-22T20:15:32.064Z,21.87
2018-08-22T20:18:06.608Z,21.40
2018-08-22T20:20:41.279Z,22.73
2018-08-22T20:23:16.106Z,21.10
2018-08-22T20:25:50.746Z,24.47
2018-08-22T20:28:25.421Z,22.03
2018-08-22T20:31:04.156Z,22.23
2018-08-22T20:33:39.585Z,23.13
2018-08-22T20:36:14.189Z,22.97
2018-08-22T20:38:48.777Z,22.03
2018-08-22T20:41:23.442Z,21.37
2018-08-22T20:43:58.118Z,23.27
2018-08-22T20:46:32.688Z,24.97
2018-08-22T20:49:07.341Z,25.13
2018-08-22T20:51:41.991Z,25.73
2018-08-22T20:54:23.981Z,28.60
2018-08-22T20:57:00.180Z,29.50
2018-08-22T20:59:34.745Z,28.67
2018-08-22T21:02:09.347Z,26.97
2018-08-22T21:04:43.870Z,26.63
2018-08-22T21:07:30.746Z,26.80
2018-08-22T21:10:05.322Z,25.57
2018-08-22T21:12:40.007Z,28.87
2018-08-22T21:15:14.612Z,27.73
2018-08-22T21:17:49.269Z,24.83
2018-08-22T21:20:24.881Z,27.77
2018-08-22T21:23:09.153Z,27.67
2018-08-22T21:31:44.663Z,32.80
2018-08-22T21:34:21.526Z,30.80
2018-08-22T21:36:56.130Z,27.90
2018-08-22T21:39:30.661Z,32.27
2018-08-22T21:42:05.161Z,30.67
2018-08-22T21:44:39.725Z,27.17
2018-08-22T21:47:14.384Z,33.33
2018-08-22T21:49:49.097Z,29.13
2018-08-22T21:52:23.708Z,28.40
2018-08-22T21:54:58.188Z,30.50
2018-08-22T21:57:32.718Z,34.17
2018-08-22T22:00:10.493Z,28.27
2018-08-22T22:02:45.336Z,31.93
2018-08-22T22:05:24.029Z,31.83
2018-08-22T22:07:58.737Z,32.67
2018-08-22T22:10:33.257Z,32.93
2018-08-22T22:13:08.448Z,32.57
2018-08-22T22:15:45.325Z,32.03
2018-08-22T22:18:22.976Z,27.50
2018-08-22T22:21:15.173Z,30.97
2018-08-22T22:23:49.985Z,34.53
2018-08-22T22:26:24.589Z,30.80
2018-08-22T22:28:59.289Z,32.60
2018-08-22T22:31:33.983Z,32.57
2018-08-22T22:34:10.226Z,32.80
2018-08-22T22:36:44.947Z,34.80
2018-08-22T22:39:33.956Z,35.17
2018-08-22T22:42:14.897Z,28.03
2018-08-22T22:44:50.673Z,33.67
2018-08-22T22:47:28.473Z,34.93
2018-08-22T22:50:04.181Z,32.58
2018-08-22T22:52:43.097Z,37.47
2018-08-22T22:55:17.568Z,32.87
2018-08-22T22:57:52.283Z,33.90
2018-08-22T23:00:29.268Z,37.43
2018-08-22T23:03:07.412Z,36.87
2018-08-22T23:05:41.937Z,31.43
2018-08-22T23:08:16.506Z,36.97
2018-08-22T23:10:51.059Z,36.30
2018-08-22T23:13:27.219Z,34.53
2018-08-22T23:16:08.201Z,30.43
2018-08-22T23:18:42.944Z,31.03
2018-08-22T23:21:17.636Z,34.83
2018-08-22T23:23:52.265Z,35.73
2018-08-22T23:26:27.017Z,32.70
2018-08-22T23:29:01.813Z,40.10
2018-08-22T23:31:36.490Z,37.93
2018-08-22T23:34:11.194Z,45.77
2018-08-22T23:36:45.817Z,37.20
2018-08-22T23:39:22.688Z,41.97
2018-08-22T23:41:57.437Z,36.33
2018-08-22T23:44:32.065Z,39.33
2018-08-22T23:47:06.653Z,38.37
2018-08-22T23:49:45.284Z,34.60
2018-08-22T23:52:19.744Z,38.73
2018-08-22T23:54:54.356Z,38.93
2018-08-22T23:57:28.920Z,38.47
